createdAt,value
2019-06-10T00:02:26.990Z,16.40
2019-06-10T00:04:53.420Z,16.40
2019-06-10T00:07:21.100Z,16.40
2019-06-10T00:09:47.656Z,16.30
2019-06-10T00:12:14.048Z,16.30
2019-06-10T00:14:41.839Z,16.30
2019-06-10T00:17:10.817Z,16.20
2019-06-10T00:19:36.656Z,16.10
2019-06-10T00:22:04.077Z,16.00
2019-06-10T00:24:31.576Z,15.90
2019-06-10T00:26:58.134Z,15.80
2019-06-10T00:29:24.563Z,15.80
2019-06-10T00:31:51.044Z,15.70
2019-06-10T00:34:20.868Z,15.60
2019-06-10T00:36:47.171Z,15.60
2019-06-10T00:39:13.851Z,15.50
2019-06-10T00:41:42.637Z,15.40
2019-06-10T00:44:08.481Z,15.40
2019-06-10T00:46:34.869Z,15.50
2019-06-10T00:49:04.179Z,15.40
2019-06-10T00:51:31.381Z,15.30
2019-06-10T00:53:57.784Z,15.30
2019-06-10T00:56:24.183Z,15.30
2019-06-10T00:58:51.385Z,15.30
2019-06-10T01:01:18.146Z,15.30
2019-06-10T01:03:44.570Z,15.20
2019-06-10T01:06:13.697Z,15.20
2019-06-10T01:08:40.585Z,15.30
2019-06-10T01:11:12.594Z,15.20
2019-06-10T01:13:35.260Z,15.20
2019-06-10T01:16:01.765Z,15.20
2019-06-10T01:18:35.727Z,15.20
2019-06-10T01:20:56.386Z,15.20
2019-06-10T01:23:22.820Z,15.20
2019-06-10T01:25:51.052Z,15.30
2019-06-10T01:28:18.609Z,15.20
2019-06-10T01:30:45.027Z,15.20
2019-06-10T01:33:13.186Z,15.20
2019-06-10T01:35:41.502Z,15.20
2019-06-10T01:38:07.888Z,15.20
2019-06-10T01:40:35.318Z,15.20
2019-06-10T01:43:01.736Z,15.20
2019-06-10T01:45:28.075Z,15.30
2019-06-10T01:47:54.502Z,15.20
2019-06-10T01:50:21.778Z,15.20
2019-06-10T01:52:48.321Z,15.20
2019-06-10T01:55:15.563Z,15.20
2019-06-10T01:57:42.964Z,15.20
2019-06-10T02:00:15.925Z,15.00
2019-06-10T02:02:44.033Z,15.00
2019-06-10T02:05:08.493Z,15.00
2019-06-10T02:07:35.661Z,14.90
2019-06-10T02:10:05.147Z,14.90
2019-06-10T02:12:32.382Z,14.80
2019-06-10T02:15:01.203Z,14.90
2019-06-10T02:17:26.948Z,14.90
2019-06-10T02:19:53.275Z,14.90
2019-06-10T02:22:23.931Z,14.80
2019-06-10T02:24:47.769Z,14.90
2019-06-10T02:27:14.838Z,14.90
2019-06-10T02:29:43.249Z,14.80
2019-06-10T02:32:15.868Z,14.80
2019-06-10T02:35:00.849Z,14.70
2019-06-10T02:37:07.526Z,14.70
2019-06-10T02:39:38.670Z,14.80
2019-06-10T02:42:04.632Z,14.90
2019-06-10T02:44:36.707Z,14.80
2019-06-10T02:47:03.412Z,14.90
2019-06-10T02:49:51.531Z,14.90
2019-06-10T02:51:57.867Z,14.90
2019-06-10T02:54:30.951Z,14.90
2019-06-10T02:56:53.714Z,14.90
2019-06-10T02:59:26.555Z,14.90
2019-06-10T03:01:48.673Z,15.00
2019-06-10T03:04:16.291Z,15.10
2019-06-10T03:06:44.861Z,15.00
2019-06-10T03:09:14.069Z,15.10
2019-06-10T03:11:39.537Z,15.10
2019-06-10T03:14:05.905Z,15.20
2019-06-10T03:16:43.019Z,15.30
2019-06-10T03:19:09.403Z,15.30
2019-06-10T03:21:35.774Z,15.40
2019-06-10T03:24:02.770Z,15.50
2019-06-10T03:26:29.183Z,15.60
2019-06-10T03:28:55.600Z,15.70
2019-06-10T03:31:28.366Z,15.80
2019-06-10T03:33:53.900Z,15.90
2019-06-10T03:36:18.275Z,16.00
2019-06-10T03:38:44.645Z,16.20
2019-06-10T03:41:12.516Z,16.30
2019-06-10T03:43:39.059Z,16.30
2019-06-10T03:46:05.409Z,16.40
2019-06-10T03:48:32.886Z,16.40
2019-06-10T03:50:59.413Z,16.50
2019-06-10T03:53:27.324Z,16.60
2019-06-10T03:55:54.861Z,16.60
2019-06-10T03:58:22.052Z,16.60
2019-06-10T04:00:52.085Z,16.70
2019-06-10T04:03:17.672Z,16.70
2019-06-10T04:05:44.066Z,16.80
2019-06-10T04:08:12.474Z,16.80
2019-06-10T04:10:38.625Z,16.90
2019-06-10T04:13:04.986Z,16.90
2019-06-10T04:15:32.590Z,16.90
2019-06-10T04:17:59.096Z,17.00
2019-06-10T04:20:28.280Z,17.10
2019-06-10T04:22:53.616Z,17.20
2019-06-10T04:25:19.997Z,17.30
2019-06-10T04:27:46.368Z,17.40
2019-06-10T04:30:16.334Z,17.50
2019-06-10T04:32:42.936Z,17.70
2019-06-10T04:35:09.567Z,17.80
2019-06-10T04:37:35.894Z,17.80
2019-06-10T04:40:07.136Z,17.90
2019-06-10T04:42:33.514Z,18.00
2019-06-10T04:44:59.948Z,18.10
2019-06-10T04:47:28.319Z,18.20
2019-06-10T04:49:55.496Z,18.20
2019-06-10T04:52:23.631Z,18.40
2019-06-10T04:54:50.011Z,18.60
2019-06-10T04:57:16.330Z,18.60
2019-06-10T04:59:42.963Z,18.80
2019-06-10T05:02:09.509Z,18.70
2019-06-10T05:04:35.900Z,18.90
2019-06-10T05:07:02.331Z,18.90
2019-06-10T05:09:29.430Z,18.90
2019-06-10T05:11:56.994Z,18.90
2019-06-10T05:14:25.034Z,19.00
2019-06-10T05:16:54.169Z,19.10
2019-06-10T05:19:19.907Z,19.20
2019-06-10T05:21:46.231Z,19.30
2019-06-10T05:24:13.748Z,19.40
2019-06-10T05:26:42.625Z,19.50
2019-06-10T05:29:08.549Z,19.50
2019-06-10T05:31:35.334Z,19.50
2019-06-10T05:34:02.405Z,19.50
2019-06-10T05:36:30.134Z,19.50
2019-06-10T05:38:57.185Z,19.60
2019-06-10T05:41:24.893Z,19.60
2019-06-10T05:43:52.290Z,19.60
2019-06-10T05:46:18.877Z,19.70
2019-06-10T05:48:45.808Z,19.70
2019-06-10T05:51:12.493Z,19.80
2019-06-10T05:53:39.038Z,19.80
2019-06-10T05:56:05.451Z,19.90
2019-06-10T05:58:34.090Z,19.90
2019-06-10T06:01:02.499Z,19.90
2019-06-10T06:03:28.359Z,20.00
2019-06-10T06:05:54.710Z,20.00
2019-06-10T06:08:22.822Z,20.10
2019-06-10T06:10:49.303Z,20.10
2019-06-10T06:13:15.717Z,20.20
2019-06-10T06:15:42.572Z,20.30
2019-06-10T06:18:10.620Z,20.20
2019-06-10T06:20:37.629Z,20.30
2019-06-10T06:23:04.125Z,20.20
2019-06-10T06:25:36.013Z,20.30
2019-06-10T06:27:58.821Z,20.40
2019-06-10T06:30:26.104Z,20.30
2019-06-10T06:32:53.267Z,20.30
2019-06-10T06:35:19.812Z,20.30
2019-06-10T06:37:46.162Z,20.20
2019-06-10T06:40:13.488Z,20.40
2019-06-10T06:42:39.788Z,20.60
2019-06-10T06:45:07.091Z,20.80
2019-06-10T06:47:35.650Z,21.00
2019-06-10T06:50:05.328Z,21.10
2019-06-10T06:53:07.758Z,21.10
2019-06-10T06:55:02.329Z,21.10
2019-06-10T06:57:28.915Z,21.10
2019-06-10T06:59:55.411Z,21.10
2019-06-10T07:02:22.730Z,21.20
2019-06-10T07:04:49.387Z,21.30
2019-06-10T07:07:18.518Z,21.40
2019-06-10T07:09:48.743Z,21.40
2019-06-10T07:12:15.666Z,21.50
2019-06-10T07:14:44.947Z,21.70
2019-06-10T07:17:12.639Z,21.80
2019-06-10T07:19:40.850Z,21.80
2019-06-10T07:22:12.537Z,21.90
2019-06-10T07:24:37.855Z,21.90
2019-06-10T07:27:03.720Z,22.10
2019-06-10T07:29:30.085Z,22.20
2019-06-10T07:31:56.458Z,22.40
2019-06-10T07:34:22.799Z,22.40
2019-06-10T07:36:49.270Z,22.70
2019-06-10T07:39:15.730Z,23.10
2019-06-10T07:41:47.509Z,23.90
2019-06-10T07:44:12.445Z,24.30
2019-06-10T07:46:39.333Z,24.70
2019-06-10T07:49:05.782Z,25.10
2019-06-10T07:51:32.895Z,25.50
2019-06-10T07:54:02.977Z,25.60
2019-06-10T07:56:31.735Z,25.90
2019-06-10T07:58:56.623Z,26.40
2019-06-10T08:01:23.284Z,27.00
2019-06-10T08:03:49.667Z,27.50
2019-06-10T08:06:16.033Z,27.50
2019-06-10T08:08:45.282Z,27.90
2019-06-10T08:11:13.390Z,27.80
2019-06-10T08:13:39.340Z,27.80
2019-06-10T08:16:05.733Z,27.80
2019-06-10T08:18:38.255Z,28.00
2019-06-10T08:21:02.906Z,28.00
2019-06-10T08:23:28.554Z,27.80
2019-06-10T08:25:57.732Z,27.40
2019-06-10T08:28:23.279Z,26.80
2019-06-10T08:30:50.025Z,26.70
2019-06-10T08:33:16.402Z,26.70
2019-06-10T08:35:53.509Z,26.70
2019-06-10T08:38:12.393Z,27.20
2019-06-10T08:40:40.527Z,28.00
2019-06-10T08:43:07.446Z,28.70
2019-06-10T08:45:34.001Z,30.10
2019-06-10T08:48:02.530Z,31.10
2019-06-10T08:50:28.711Z,31.40
2019-06-10T08:53:10.313Z,31.30
2019-06-10T08:55:23.517Z,31.20
2019-06-10T08:57:51.613Z,31.40
2019-06-10T09:00:18.872Z,31.20
2019-06-10T09:02:48.526Z,31.80
2019-06-10T09:05:18.306Z,32.40
2019-06-10T09:07:49.626Z,32.20
2019-06-10T09:10:15.820Z,31.70
2019-06-10T09:12:46.086Z,31.70
2019-06-10T09:15:13.046Z,31.30
2019-06-10T09:17:40.170Z,30.60
2019-06-10T09:20:08.963Z,30.00
2019-06-10T09:22:35.552Z,29.80
2019-06-10T09:25:03.988Z,29.40
2019-06-10T09:27:32.762Z,29.20
2019-06-10T09:29:58.570Z,29.20
2019-06-10T09:32:24.938Z,29.30
2019-06-10T09:34:54.724Z,29.60
2019-06-10T09:37:19.517Z,30.10
2019-06-10T09:39:51.836Z,30.50
2019-06-10T09:42:14.620Z,30.70
2019-06-10T09:44:45.121Z,30.60
2019-06-10T09:47:09.306Z,30.10
2019-06-10T09:49:36.353Z,29.60
2019-06-10T09:52:03.333Z,29.60
2019-06-10T09:54:30.017Z,29.40
2019-06-10T09:56:56.688Z,29.50
2019-06-10T09:59:23.611Z,29.60
2019-06-10T10:01:56.659Z,29.30
2019-06-10T10:04:23.057Z,29.30
2019-06-10T10:06:54.810Z,29.70
2019-06-10T10:09:18.705Z,29.80
2019-06-10T10:11:47.387Z,30.20
2019-06-10T10:14:15.899Z,30.70
2019-06-10T10:16:44.121Z,31.40
2019-06-10T10:19:09.709Z,32.00
2019-06-10T10:21:36.043Z,32.40
2019-06-10T10:24:09.909Z,33.10
2019-06-10T10:26:31.264Z,33.20
2019-06-10T10:28:57.913Z,33.50
2019-06-10T10:31:25.431Z,34.00
2019-06-10T10:33:52.685Z,34.50
2019-06-10T10:36:19.277Z,33.80
2019-06-10T10:38:46.752Z,33.40
2019-06-10T10:41:13.646Z,32.80
2019-06-10T10:43:42.910Z,32.80
2019-06-10T10:46:09.143Z,33.20
2019-06-10T10:48:36.241Z,34.30
2019-06-10T10:51:03.568Z,34.60
2019-06-10T10:53:32.847Z,35.30
2019-06-10T10:55:59.052Z,35.70
2019-06-10T10:58:25.413Z,36.80
2019-06-10T11:00:54.480Z,36.90
2019-06-10T11:03:22.667Z,36.70
2019-06-10T11:05:50.299Z,37.10
2019-06-10T11:08:16.463Z,36.70
2019-06-10T11:10:45.361Z,35.70
2019-06-10T11:13:11.205Z,35.10
2019-06-10T11:15:37.641Z,35.00
2019-06-10T11:18:05.381Z,34.60
2019-06-10T11:20:33.644Z,34.20
2019-06-10T11:23:00.078Z,34.80
2019-06-10T11:25:26.476Z,34.80
2019-06-10T11:27:54.562Z,34.50
2019-06-10T11:30:21.149Z,35.20
2019-06-10T11:32:48.055Z,35.70
2019-06-10T11:35:14.599Z,36.00
2019-06-10T11:37:42.285Z,36.50
2019-06-10T11:40:09.763Z,36.40
2019-06-10T11:42:36.192Z,36.70
2019-06-10T11:45:05.463Z,36.60
2019-06-10T11:47:33.030Z,36.60
2019-06-10T11:49:59.441Z,36.40
2019-06-10T11:52:25.842Z,36.60
2019-06-10T11:55:05.675Z,36.40
2019-06-10T11:57:22.827Z,36.40
2019-06-10T11:59:48.629Z,36.10
2019-06-10T12:02:14.962Z,36.40
2019-06-10T12:04:41.365Z,36.60
2019-06-10T12:07:07.681Z,36.90
2019-06-10T12:09:34.095Z,36.60
2019-06-10T12:12:02.282Z,37.60
2019-06-10T12:14:28.673Z,38.00
2019-06-10T12:19:23.578Z,37.20
2019-06-10T12:21:53.459Z,37.80
2019-06-10T12:24:18.325Z,37.10
2019-06-10T12:26:44.725Z,37.10
2019-06-10T12:29:12.398Z,37.50
2019-06-10T12:31:39.078Z,37.30
2019-06-10T12:34:06.137Z,37.50
2019-06-10T12:36:32.816Z,37.40
2019-06-10T12:39:04.123Z,37.30
2019-06-10T12:41:29.369Z,36.90
2019-06-10T12:43:56.650Z,35.60
2019-06-10T12:46:23.461Z,34.80
2019-06-10T12:48:49.970Z,34.50
2019-06-10T12:51:16.366Z,34.90
2019-06-10T12:53:43.387Z,35.00
2019-06-10T12:56:14.007Z,34.30
2019-06-10T12:58:38.125Z,34.60
2019-06-10T13:01:06.071Z,34.80
2019-06-10T13:03:33.669Z,34.30
2019-06-10T13:06:06.686Z,34.10
2019-06-10T13:08:33.291Z,33.90
2019-06-10T13:10:59.888Z,33.60
2019-06-10T13:13:26.355Z,33.20
2019-06-10T13:15:53.398Z,33.00
2019-06-10T13:18:19.956Z,33.00
2019-06-10T13:20:46.291Z,32.80
2019-06-10T13:23:24.663Z,32.90
2019-06-10T13:25:51.197Z,33.20
2019-06-10T13:28:09.186Z,33.20
2019-06-10T13:30:38.382Z,33.40
2019-06-10T13:33:10.431Z,33.40
2019-06-10T13:35:33.007Z,33.20
2019-06-10T13:38:01.615Z,33.30
2019-06-10T13:40:28.695Z,32.80
2019-06-10T13:42:55.026Z,32.60
2019-06-10T13:45:25.473Z,32.30
2019-06-10T13:47:53.077Z,32.20
2019-06-10T13:50:22.083Z,31.60
2019-06-10T13:52:48.030Z,31.90
2019-06-10T13:55:14.694Z,32.40
2019-06-10T13:57:42.619Z,32.60
2019-06-10T14:00:11.569Z,32.70
2019-06-10T14:02:38.192Z,32.80
2019-06-10T14:05:11.068Z,33.00
2019-06-10T14:07:35.199Z,32.50
2019-06-10T14:10:07.248Z,32.50
2019-06-10T14:12:32.292Z,32.50
2019-06-10T14:14:58.518Z,32.30
2019-06-10T14:17:25.034Z,32.10
2019-06-10T14:19:51.479Z,31.90
2019-06-10T14:22:17.814Z,31.60
2019-06-10T14:24:44.268Z,31.40
2019-06-10T14:27:15.057Z,31.40
2019-06-10T14:29:38.809Z,31.50
2019-06-10T14:32:05.798Z,31.40
2019-06-10T14:34:32.664Z,31.40
2019-06-10T14:36:59.215Z,31.70
2019-06-10T14:39:25.566Z,32.00
2019-06-10T14:41:52.347Z,32.50
2019-06-10T14:44:18.790Z,32.60
2019-06-10T14:46:45.197Z,32.40
2019-06-10T14:49:14.076Z,32.00
2019-06-10T14:51:39.850Z,31.90
2019-06-10T14:54:07.198Z,31.90
2019-06-10T14:56:33.837Z,31.70
2019-06-10T14:59:02.272Z,31.40
2019-06-10T15:01:28.400Z,31.40
2019-06-10T15:03:54.795Z,31.40
2019-06-10T15:06:22.739Z,31.40
2019-06-10T15:08:49.318Z,31.30
2019-06-10T15:11:15.893Z,31.50
2019-06-10T15:13:43.447Z,31.70
2019-06-10T15:16:10.220Z,31.40
2019-06-10T15:18:36.644Z,31.20
2019-06-10T15:21:03.929Z,31.00
2019-06-10T15:23:32.450Z,30.90
2019-06-10T15:25:58.569Z,31.00
2019-06-10T15:28:24.974Z,30.70
2019-06-10T15:30:52.471Z,30.80
2019-06-10T15:33:20.146Z,30.70
2019-06-10T15:35:46.535Z,30.60
2019-06-10T15:38:15.730Z,30.70
2019-06-10T15:40:43.292Z,30.60
2019-06-10T15:43:09.874Z,30.70
2019-06-10T15:45:36.273Z,30.70
2019-06-10T15:48:02.692Z,30.70
2019-06-10T15:50:29.644Z,30.70
2019-06-10T15:52:56.708Z,30.70
2019-06-10T15:55:49.111Z,30.60
2019-06-10T15:57:51.293Z,30.50
2019-06-10T16:00:23.484Z,30.30
2019-06-10T16:02:46.144Z,30.20
2019-06-10T16:05:14.415Z,30.20
2019-06-10T16:07:42.336Z,30.10
2019-06-10T16:10:09.375Z,30.10
2019-06-10T16:12:35.757Z,30.10
2019-06-10T16:15:06.233Z,30.10
2019-06-10T16:17:33.208Z,30.00
2019-06-10T16:19:59.807Z,29.90
2019-06-10T16:22:26.362Z,29.90
2019-06-10T16:24:52.801Z,29.80
2019-06-10T16:27:20.484Z,29.70
2019-06-10T16:29:47.399Z,29.70
2019-06-10T16:32:14.626Z,29.50
2019-06-10T16:34:41.287Z,29.60
2019-06-10T16:37:07.813Z,29.60
2019-06-10T16:39:34.286Z,29.70
2019-06-10T16:42:02.840Z,29.70
2019-06-10T16:44:28.894Z,29.60
2019-06-10T16:46:55.251Z,29.70
2019-06-10T16:49:21.635Z,29.70
2019-06-10T16:51:48.071Z,29.70
2019-06-10T16:54:14.473Z,29.60
2019-06-10T16:56:43.323Z,29.60
2019-06-10T16:59:09.089Z,29.70
2019-06-10T17:01:35.504Z,29.60
2019-06-10T17:04:01.881Z,29.50
2019-06-10T17:06:28.251Z,29.40
2019-06-10T17:08:54.637Z,29.30
2019-06-10T17:11:23.722Z,29.30
2019-06-10T17:13:49.194Z,29.40
2019-06-10T17:16:15.567Z,29.30
2019-06-10T17:18:41.913Z,29.30
2019-06-10T17:21:08.354Z,29.30
2019-06-10T17:23:36.433Z,29.40
2019-06-10T17:26:03.070Z,29.40
2019-06-10T17:28:33.896Z,29.50
2019-06-10T17:30:58.135Z,29.50
2019-06-10T17:33:26.207Z,29.40
2019-06-10T17:35:52.713Z,29.30
2019-06-10T17:38:20.470Z,29.20
2019-06-10T17:40:47.990Z,29.10
2019-06-10T17:43:14.464Z,29.00
2019-06-10T17:45:42.203Z,28.90
2019-06-10T17:48:09.956Z,28.70
2019-06-10T17:50:36.326Z,28.70
2019-06-10T17:53:03.062Z,28.60
2019-06-10T17:55:33.183Z,28.60
2019-06-10T17:57:57.720Z,28.50
2019-06-10T18:00:26.108Z,28.50
2019-06-10T18:02:53.601Z,28.30
2019-06-10T18:05:22.057Z,28.30
2019-06-10T18:07:49.444Z,28.20
2019-06-10T18:10:15.935Z,28.10
2019-06-10T18:12:42.434Z,28.10
2019-06-10T18:15:09.500Z,28.00
2019-06-10T18:17:36.379Z,27.90
2019-06-10T18:20:06.123Z,27.90
2019-06-10T18:22:34.631Z,27.90
2019-06-10T18:25:03.648Z,27.80
2019-06-10T18:27:33.631Z,27.80
2019-06-10T18:29:58.408Z,27.80
2019-06-10T18:32:25.432Z,27.70
2019-06-10T18:34:52.156Z,27.80
2019-06-10T18:37:18.586Z,27.70
2019-06-10T18:39:44.980Z,27.70
2019-06-10T18:42:12.676Z,27.60
2019-06-10T18:44:40.058Z,27.70
2019-06-10T18:47:06.530Z,27.60
2019-06-10T18:49:34.643Z,27.60
2019-06-10T18:52:01.100Z,27.50
2019-06-10T18:54:27.772Z,27.40
2019-06-10T18:56:54.238Z,27.20
2019-06-10T18:59:21.360Z,27.00
2019-06-10T19:01:47.950Z,26.90
2019-06-10T19:04:14.370Z,26.90
2019-06-10T19:06:43.055Z,26.90
2019-06-10T19:09:09.195Z,26.90
2019-06-10T19:11:36.972Z,26.70
2019-06-10T19:14:03.918Z,26.70
2019-06-10T19:16:32.568Z,26.50
2019-06-10T19:18:58.523Z,26.70
2019-06-10T19:21:24.939Z,26.50
2019-06-10T19:23:53.165Z,26.50
2019-06-10T19:26:21.957Z,26.50
2019-06-10T19:28:47.957Z,26.50
2019-06-10T19:31:14.401Z,26.50
2019-06-10T19:33:44.720Z,26.50
2019-06-10T19:36:09.023Z,26.20
2019-06-10T19:38:36.698Z,26.10
2019-06-10T19:41:03.727Z,26.00
2019-06-10T19:43:30.163Z,26.00
2019-06-10T19:45:57.785Z,25.90
2019-06-10T19:48:24.318Z,25.90
2019-06-10T19:50:53.782Z,25.90
2019-06-10T19:53:18.952Z,25.70
2019-06-10T19:55:46.144Z,25.80
2019-06-10T19:58:13.418Z,25.70
2019-06-10T20:00:40.037Z,25.90
2019-06-10T20:03:06.443Z,26.00
2019-06-10T20:05:34.530Z,26.00
2019-06-10T20:08:03.085Z,25.90
2019-06-10T20:10:29.318Z,25.90
2019-06-10T20:12:55.747Z,25.80
2019-06-10T20:15:24.993Z,25.80
2019-06-10T20:17:52.556Z,25.80
2019-06-10T20:20:22.329Z,25.80
2019-06-10T20:22:48.175Z,25.80
2019-06-10T20:25:15.243Z,25.80
2019-06-10T20:27:44.042Z,25.80
2019-06-10T20:30:24.366Z,25.60
2019-06-10T20:32:41.560Z,25.60
2019-06-10T20:35:07.260Z,25.60
2019-06-10T20:37:33.640Z,25.60
2019-06-10T20:40:03.324Z,25.50
2019-06-10T20:42:28.491Z,25.40
2019-06-10T20:44:55.002Z,25.50
2019-06-10T20:47:22.963Z,25.50
2019-06-10T20:49:53.469Z,25.30
2019-06-10T20:52:17.923Z,25.40
2019-06-10T20:54:46.958Z,25.30
2019-06-10T20:57:13.879Z,25.40
2019-06-10T20:59:43.747Z,25.30
2019-06-10T21:02:08.847Z,25.30
2019-06-10T21:04:35.526Z,25.30
2019-06-10T21:07:02.699Z,25.30
2019-06-10T21:09:32.717Z,25.20
2019-06-10T21:12:01.944Z,25.10
2019-06-10T21:14:29.061Z,25.10
2019-06-10T21:16:57.303Z,25.10
2019-06-10T21:19:25.565Z,25.10
2019-06-10T21:21:54.647Z,25.10
2019-06-10T21:24:23.157Z,25.00
2019-06-10T21:26:54.270Z,25.10
2019-06-10T21:29:18.192Z,25.20
2019-06-10T21:31:47.009Z,25.20
2019-06-10T21:34:12.761Z,25.10
2019-06-10T21:36:39.289Z,25.00
2019-06-10T21:39:06.558Z,25.00
2019-06-10T21:41:32.978Z,25.00
2019-06-10T21:43:59.791Z,25.00
2019-06-10T21:46:27.045Z,25.00
2019-06-10T21:48:55.915Z,25.00
2019-06-10T21:51:22.822Z,25.00
2019-06-10T21:53:50.622Z,25.00
2019-06-10T21:56:17.588Z,25.10
2019-06-10T21:58:45.045Z,25.00
2019-06-10T22:01:14.280Z,25.10
2019-06-10T22:03:39.989Z,25.20
2019-06-10T22:06:06.353Z,25.30
2019-06-10T22:08:33.513Z,25.30
2019-06-10T22:11:02.474Z,25.30
2019-06-10T22:13:28.426Z,25.40
2019-06-10T22:15:56.930Z,25.30
2019-06-10T22:18:23.242Z,25.20
2019-06-10T22:20:51.582Z,25.20
2019-06-10T22:23:17.927Z,25.10
2019-06-10T22:25:44.838Z,25.20
2019-06-10T22:28:13.069Z,25.10
2019-06-10T22:30:39.500Z,25.20
2019-06-10T22:33:05.917Z,25.10
2019-06-10T22:35:32.383Z,25.00
2019-06-10T22:37:58.852Z,25.00
2019-06-10T22:40:25.263Z,25.10
2019-06-10T22:42:53.457Z,25.10
2019-06-10T22:45:19.838Z,25.10
2019-06-10T22:47:46.244Z,25.10
2019-06-10T22:50:12.840Z,25.00
2019-06-10T22:52:39.161Z,25.00
2019-06-10T22:55:07.395Z,25.00
2019-06-10T22:57:36.441Z,25.00
2019-06-10T23:00:07.265Z,24.90
2019-06-10T23:02:33.805Z,24.90
2019-06-10T23:05:04.972Z,24.80
2019-06-10T23:07:28.296Z,24.80
2019-06-10T23:09:56.021Z,24.80
2019-06-10T23:12:22.753Z,24.80
2019-06-10T23:14:49.270Z,24.80
2019-06-10T23:17:15.716Z,24.80
2019-06-10T23:19:42.800Z,24.70
2019-06-10T23:22:09.298Z,24.60
2019-06-10T23:24:35.719Z,24.70
2019-06-10T23:27:03.200Z,24.70
2019-06-10T23:29:32.099Z,24.60
2019-06-10T23:32:03.666Z,24.50
2019-06-10T23:34:26.487Z,24.50
2019-06-10T23:36:54.890Z,24.40
2019-06-10T23:39:22.577Z,24.30
2019-06-10T23:41:49.173Z,24.30
2019-06-10T23:44:15.524Z,24.30
2019-06-10T23:46:42.602Z,24.20
2019-06-10T23:49:09.040Z,24.20
2019-06-10T23:51:35.448Z,24.10
2019-06-10T23:54:04.620Z,24.20
2019-06-10T23:56:30.019Z,24.10
2019-06-10T23:58:58.610Z,24.10
